sensor_id;sensor_type;location;lat;lon;timestamp;pressure;altitude;pressure_sealevel;temperature;humidity
39223;BME280;24936;46.328;11.026;2023-03-31T00:01:23;94301.03;;;7.98;80.37
39223;BME280;24936;46.328;11.026;2023-03-31T00:03:49;94295.72;;;7.88;80.48
39223;BME280;24936;46.328;11.026;2023-03-31T00:06:14;94293.03;;;7.99;79.33
39223;BME280;24936;46.328;11.026;2023-03-31T00:16:02;94282.47;;;7.89;79.21
39223;BME280;24936;46.328;11.026;2023-03-31T00:18:28;94271.28;;;7.87;78.94
39223;BME280;24936;46.328;11.026;2023-03-31T00:21:14;94269.56;;;7.98;78.01
39223;BME280;24936;46.328;11.026;2023-03-31T00:24:00;94263.25;;;7.79;79.08
39223;BME280;24936;46.328;11.026;2023-03-31T00:26:26;94269.25;;;7.70;79.25
39223;BME280;24936;46.328;11.026;2023-03-31T00:28:52;94262.09;;;7.72;79.67
39223;BME280;24936;46.328;11.026;2023-03-31T00:31:19;94266.00;;;7.56;80.10
39223;BME280;24936;46.328;11.026;2023-03-31T00:33:49;94272.41;;;7.52;81.66
39223;BME280;24936;46.328;11.026;2023-03-31T00:36:15;94277.34;;;7.45;82.52
39223;BME280;24936;46.328;11.026;2023-03-31T00:39:03;94268.06;;;7.41;82.58
39223;BME280;24936;46.328;11.026;2023-03-31T00:41:32;94261.09;;;7.30;82.89
39223;BME280;24936;46.328;11.026;2023-03-31T00:49:15;94242.13;;;7.17;83.64
39223;BME280;24936;46.328;11.026;2023-03-31T00:51:45;94240.56;;;7.14;84.04
39223;BME280;24936;46.328;11.026;2023-03-31T00:54:12;94238.97;;;7.23;84.00
39223;BME280;24936;46.328;11.026;2023-03-31T00:56:41;94234.13;;;7.18;84.10
39223;BME280;24936;46.328;11.026;2023-03-31T00:59:11;94236.59;;;7.20;83.55
39223;BME280;24936;46.328;11.026;2023-03-31T01:01:39;94236.75;;;7.18;84.00
39223;BME280;24936;46.328;11.026;2023-03-31T01:04:07;94226.75;;;7.12;84.20
39223;BME280;24936;46.328;11.026;2023-03-31T01:06:37;94221.28;;;7.15;84.13
39223;BME280;24936;46.328;11.026;2023-03-31T01:09:06;94222.56;;;7.21;83.70
39223;BME280;24936;46.328;11.026;2023-03-31T01:11:32;94215.88;;;7.28;83.11
39223;BME280;24936;46.328;11.026;2023-03-31T01:13:59;94217.16;;;7.34;82.72
39223;BME280;24936;46.328;11.026;2023-03-31T01:16:25;94209.31;;;7.34;82.73
39223;BME280;24936;46.328;11.026;2023-03-31T01:18:51;94211.59;;;7.27;83.41
39223;BME280;24936;46.328;11.026;2023-03-31T01:26:34;94201.13;;;7.27;83.39
39223;BME280;24936;46.328;11.026;2023-03-31T01:29:41;94207.06;;;7.29;83.85
39223;BME280;24936;46.328;11.026;2023-03-31T01:38:54;94186.88;;;7.20;84.25
39223;BME280;24936;46.328;11.026;2023-03-31T01:46:43;94185.53;;;7.26;84.07
39223;BME280;24936;46.328;11.026;2023-03-31T01:52:03;94191.38;;;7.29;83.88
39223;BME280;24936;46.328;11.026;2023-03-31T01:54:38;94185.28;;;7.29;84.06
39223;BME280;24936;46.328;11.026;2023-03-31T02:02:28;94177.31;;;7.30;84.00
39223;BME280;24936;46.328;11.026;2023-03-31T02:05:05;94177.31;;;7.30;84.13
39223;BME280;24936;46.328;11.026;2023-03-31T02:07:54;94172.72;;;7.23;84.64
39223;BME280;24936;46.328;11.026;2023-03-31T02:10:25;94170.34;;;7.19;84.72
39223;BME280;24936;46.328;11.026;2023-03-31T02:12:58;94164.09;;;7.11;85.16
39223;BME280;24936;46.328;11.026;2023-03-31T02:15:27;94164.91;;;7.11;85.53
39223;BME280;24936;46.328;11.026;2023-03-31T02:17:57;94161.72;;;7.08;85.79
39223;BME280;24936;46.328;11.026;2023-03-31T02:20:26;94151.47;;;7.04;85.46
39223;BME280;24936;46.328;11.026;2023-03-31T02:22:55;94149.81;;;7.03;85.48
39223;BME280;24936;46.328;11.026;2023-03-31T02:25:24;94148.44;;;6.99;85.73
39223;BME280;24936;46.328;11.026;2023-03-31T02:27:56;94137.28;;;7.18;85.31
39223;BME280;24936;46.328;11.026;2023-03-31T02:30:29;94135.63;;;7.17;85.40
39223;BME280;24936;46.328;11.026;2023-03-31T02:32:59;94144.81;;;7.33;84.93
39223;BME280;24936;46.328;11.026;2023-03-31T02:35:24;94151.66;;;7.45;84.67
39223;BME280;24936;46.328;11.026;2023-03-31T02:37:50;94134.72;;;7.28;84.39
39223;BME280;24936;46.328;11.026;2023-03-31T02:40:19;94141.00;;;7.16;84.78
39223;BME280;24936;46.328;11.026;2023-03-31T02:42:46;94142.59;;;7.28;84.82
39223;BME280;24936;46.328;11.026;2023-03-31T02:45:38;94126.94;;;7.17;84.82
39223;BME280;24936;46.328;11.026;2023-03-31T03:02:09;94122.13;;;7.01;84.75
39223;BME280;24936;46.328;11.026;2023-03-31T03:08:08;94119.38;;;6.81;86.06
39223;BME280;24936;46.328;11.026;2023-03-31T03:10:59;94115.09;;;6.80;85.88
39223;BME280;24936;46.328;11.026;2023-03-31T03:13:29;94095.63;;;6.73;85.82
39223;BME280;24936;46.328;11.026;2023-03-31T03:16:09;94116.44;;;6.63;85.74
39223;BME280;24936;46.328;11.026;2023-03-31T03:18:38;94109.75;;;6.49;86.21
39223;BME280;24936;46.328;11.026;2023-03-31T03:21:04;94106.50;;;6.57;86.19
39223;BME280;24936;46.328;11.026;2023-03-31T03:23:29;94107.25;;;6.48;86.30
39223;BME280;24936;46.328;11.026;2023-03-31T03:25:55;94104.03;;;6.44;86.51
39223;BME280;24936;46.328;11.026;2023-03-31T03:28:21;94108.22;;;6.47;86.55
39223;BME280;24936;46.328;11.026;2023-03-31T03:30:47;94107.94;;;6.50;86.42
39223;BME280;24936;46.328;11.026;2023-03-31T03:33:13;94111.50;;;6.60;86.27
39223;BME280;24936;46.328;11.026;2023-03-31T03:35:41;94097.09;;;6.66;86.08
39223;BME280;24936;46.328;11.026;2023-03-31T03:38:06;94090.59;;;6.49;86.41
39223;BME280;24936;46.328;11.026;2023-03-31T03:40:32;94103.81;;;6.47;87.11
39223;BME280;24936;46.328;11.026;2023-03-31T03:42:57;94103.03;;;6.56;87.03
39223;BME280;24936;46.328;11.026;2023-03-31T03:45:22;94094.38;;;6.56;86.92
39223;BME280;24936;46.328;11.026;2023-03-31T03:47:48;94087.00;;;6.61;86.77
39223;BME280;24936;46.328;11.026;2023-03-31T03:50:13;94080.56;;;6.65;86.54
39223;BME280;24936;46.328;11.026;2023-03-31T03:52:39;94074.31;;;6.78;86.36
39223;BME280;24936;46.328;11.026;2023-03-31T03:55:04;94070.31;;;6.73;86.44
39223;BME280;24936;46.328;11.026;2023-03-31T03:57:30;94074.44;;;6.76;86.53
39223;BME280;24936;46.328;11.026;2023-03-31T03:59:55;94075.25;;;6.77;86.58
39223;BME280;24936;46.328;11.026;2023-03-31T04:02:20;94073.34;;;6.79;86.21
39223;BME280;24936;46.328;11.026;2023-03-31T04:04:46;94078.59;;;6.79;85.93
39223;BME280;24936;46.328;11.026;2023-03-31T04:07:12;94070.31;;;6.73;86.72
39223;BME280;24936;46.328;11.026;2023-03-31T04:09:37;94074.91;;;7.02;85.98
39223;BME280;24936;46.328;11.026;2023-03-31T04:12:03;94072.09;;;6.94;86.26
39223;BME280;24936;46.328;11.026;2023-03-31T04:14:28;94069.06;;;6.89;85.89
39223;BME280;24936;46.328;11.026;2023-03-31T04:16:54;94070.50;;;6.82;86.66
39223;BME280;24936;46.328;11.026;2023-03-31T04:19:21;94062.16;;;6.88;85.86
39223;BME280;24936;46.328;11.026;2023-03-31T04:21:50;94061.94;;;6.80;86.21
39223;BME280;24936;46.328;11.026;2023-03-31T04:24:23;94050.03;;;6.87;86.36
39223;BME280;24936;46.328;11.026;2023-03-31T04:26:55;94046.94;;;6.82;86.30
39223;BME280;24936;46.328;11.026;2023-03-31T04:29:21;94055.50;;;6.84;86.34
39223;BME280;24936;46.328;11.026;2023-03-31T04:31:52;94046.25;;;6.80;86.28
39223;BME280;24936;46.328;11.026;2023-03-31T04:34:18;94048.16;;;6.78;86.17
39223;BME280;24936;46.328;11.026;2023-03-31T04:36:46;94046.06;;;6.93;85.62
39223;BME280;24936;46.328;11.026;2023-03-31T04:39:14;94048.31;;;6.97;84.88
39223;BME280;24936;46.328;11.026;2023-03-31T04:41:39;94056.41;;;6.94;84.99
39223;BME280;24936;46.328;11.026;2023-03-31T04:44:05;94057.34;;;6.93;84.88
39223;BME280;24936;46.328;11.026;2023-03-31T04:46:32;94062.25;;;7.08;84.54
39223;BME280;24936;46.328;11.026;2023-03-31T04:48:57;94069.41;;;7.06;84.26
39223;BME280;24936;46.328;11.026;2023-03-31T04:51:23;94059.91;;;7.04;84.87
39223;BME280;24936;46.328;11.026;2023-03-31T04:53:49;94068.97;;;7.00;84.69
39223;BME280;24936;46.328;11.026;2023-03-31T04:56:14;94069.09;;;7.20;84.28
39223;BME280;24936;46.328;11.026;2023-03-31T04:58:39;94066.38;;;7.00;84.56
39223;BME280;24936;46.328;11.026;2023-03-31T05:01:05;94066.38;;;7.00;84.86
39223;BME280;24936;46.328;11.026;2023-03-31T05:03:36;94059.16;;;6.93;84.61
39223;BME280;24936;46.328;11.026;2023-03-31T05:06:02;94053.91;;;6.93;85.09
39223;BME280;24936;46.328;11.026;2023-03-31T05:08:27;94032.16;;;6.92;85.11
39223;BME280;24936;46.328;11.026;2023-03-31T05:10:55;94037.31;;;7.03;84.49
39223;BME280;24936;46.328;11.026;2023-03-31T05:13:24;94026.84;;;7.03;84.79
39223;BME280;24936;46.328;11.026;2023-03-31T05:15:49;94025.84;;;6.95;85.15
39223;BME280;24936;46.328;11.026;2023-03-31T05:18:16;94035.59;;;6.93;84.79
39223;BME280;24936;46.328;11.026;2023-03-31T05:20:42;94025.53;;;6.88;85.35
39223;BME280;24936;46.328;11.026;2023-03-31T05:23:08;94029.81;;;6.89;85.25
39223;BME280;24936;46.328;11.026;2023-03-31T05:25:34;94031.72;;;6.87;85.50
39223;BME280;24936;46.328;11.026;2023-03-31T05:28:00;94028.72;;;6.92;85.73
39223;BME280;24936;46.328;11.026;2023-03-31T05:30:27;94034.34;;;6.87;85.29
39223;BME280;24936;46.328;11.026;2023-03-31T05:32:53;94040.53;;;6.86;85.65
39223;BME280;24936;46.328;11.026;2023-03-31T05:35:18;94042.88;;;6.89;85.96
39223;BME280;24936;46.328;11.026;2023-03-31T05:37:44;94035.22;;;6.97;85.46
39223;BME280;24936;46.328;11.026;2023-03-31T05:40:10;94046.81;;;7.04;85.43
39223;BME280;24936;46.328;11.026;2023-03-31T05:42:36;94047.19;;;7.21;84.09
39223;BME280;24936;46.328;11.026;2023-03-31T05:45:02;94033.94;;;7.13;84.61
39223;BME280;24936;46.328;11.026;2023-03-31T05:47:27;94032.78;;;7.06;84.81
39223;BME280;24936;46.328;11.026;2023-03-31T05:49:53;94016.25;;;7.05;84.41
39223;BME280;24936;46.328;11.026;2023-03-31T05:52:18;94018.63;;;7.08;84.81
39223;BME280;24936;46.328;11.026;2023-03-31T05:54:43;94009.50;;;7.02;85.00
39223;BME280;24936;46.328;11.026;2023-03-31T05:57:09;94016.66;;;7.00;85.44
39223;BME280;24936;46.328;11.026;2023-03-31T05:59:35;94013.84;;;6.92;85.55
39223;BME280;24936;46.328;11.026;2023-03-31T06:02:04;94007.75;;;7.13;85.38
39223;BME280;24936;46.328;11.026;2023-03-31T06:04:29;93989.22;;;6.95;85.64
39223;BME280;24936;46.328;11.026;2023-03-31T06:06:56;93976.50;;;6.90;85.64
39223;BME280;24936;46.328;11.026;2023-03-31T06:09:22;93983.13;;;6.94;85.71
39223;BME280;24936;46.328;11.026;2023-03-31T06:11:47;93986.38;;;7.08;85.62
39223;BME280;24936;46.328;11.026;2023-03-31T06:14:13;93985.97;;;7.12;85.40
39223;BME280;24936;46.328;11.026;2023-03-31T06:16:38;93980.53;;;7.25;84.58
39223;BME280;24936;46.328;11.026;2023-03-31T06:19:03;93973.69;;;7.34;84.55
39223;BME280;24936;46.328;11.026;2023-03-31T06:21:29;93975.41;;;7.55;84.15
39223;BME280;24936;46.328;11.026;2023-03-31T06:23:55;93978.28;;;7.42;84.35
39223;BME280;24936;46.328;11.026;2023-03-31T06:26:22;93978.97;;;7.54;84.46
39223;BME280;24936;46.328;11.026;2023-03-31T06:28:48;93977.56;;;7.40;84.43
39223;BME280;24936;46.328;11.026;2023-03-31T06:31:20;93984.47;;;7.41;84.74
39223;BME280;24936;46.328;11.026;2023-03-31T06:33:46;93973.31;;;7.48;84.45
39223;BME280;24936;46.328;11.026;2023-03-31T06:36:14;93975.41;;;7.55;84.83
39223;BME280;24936;46.328;11.026;2023-03-31T06:38:40;93970.81;;;7.47;84.68
39223;BME280;24936;46.328;11.026;2023-03-31T06:41:07;93966.53;;;7.46;84.89
39223;BME280;24936;46.328;11.026;2023-03-31T06:43:34;93969.06;;;7.47;84.54
39223;BME280;24936;46.328;11.026;2023-03-31T06:46:00;93968.53;;;7.63;84.90
39223;BME280;24936;46.328;11.026;2023-03-31T06:48:26;93969.94;;;7.68;84.07
39223;BME280;24936;46.328;11.026;2023-03-31T06:50:54;93956.88;;;7.77;84.11
39223;BME280;24936;46.328;11.026;2023-03-31T06:53:20;93944.31;;;7.81;84.27
39223;BME280;24936;46.328;11.026;2023-03-31T06:55:46;93945.84;;;8.03;83.75
39223;BME280;24936;46.328;11.026;2023-03-31T06:58:11;93954.56;;;8.23;82.85
39223;BME280;24936;46.328;11.026;2023-03-31T07:00:37;93950.97;;;8.24;82.31
39223;BME280;24936;46.328;11.026;2023-03-31T07:03:03;93952.34;;;8.09;82.79
39223;BME280;24936;46.328;11.026;2023-03-31T07:05:29;93958.69;;;8.06;82.75
39223;BME280;24936;46.328;11.026;2023-03-31T07:07:55;93953.06;;;8.21;82.58
39223;BME280;24936;46.328;11.026;2023-03-31T07:10:22;93953.31;;;8.18;82.38
39223;BME280;24936;46.328;11.026;2023-03-31T07:12:48;93951.25;;;8.61;81.99
39223;BME280;24936;46.328;11.026;2023-03-31T07:15:20;93948.19;;;8.75;80.52
39223;BME280;24936;46.328;11.026;2023-03-31T07:17:46;93948.06;;;8.77;80.45
39223;BME280;24936;46.328;11.026;2023-03-31T07:20:39;93947.34;;;8.84;80.03
39223;BME280;24936;46.328;11.026;2023-03-31T07:23:06;93939.84;;;8.99;79.63
39223;BME280;24936;46.328;11.026;2023-03-31T07:25:33;93929.81;;;9.23;78.77
39223;BME280;24936;46.328;11.026;2023-03-31T07:27:59;93930.16;;;9.00;78.67
39223;BME280;24936;46.328;11.026;2023-03-31T07:30:26;93935.19;;;8.83;79.49
39223;BME280;24936;46.328;11.026;2023-03-31T07:36:06;93931.03;;;8.91;79.10
39223;BME280;24936;46.328;11.026;2023-03-31T07:38:41;93922.97;;;9.02;78.72
39223;BME280;24936;46.328;11.026;2023-03-31T07:41:15;93922.59;;;8.97;79.14
39223;BME280;24936;46.328;11.026;2023-03-31T07:43:41;93916.16;;;8.71;79.32
39223;BME280;24936;46.328;11.026;2023-03-31T07:46:33;93921.16;;;8.65;79.03
39223;BME280;24936;46.328;11.026;2023-03-31T07:49:04;93911.06;;;8.70;79.50
39223;BME280;24936;46.328;11.026;2023-03-31T07:51:37;93909.81;;;8.64;79.59
39223;BME280;24936;46.328;11.026;2023-03-31T07:54:02;93912.75;;;8.61;79.33
39223;BME280;24936;46.328;11.026;2023-03-31T07:59:20;93903.63;;;9.03;79.17
39223;BME280;24936;46.328;11.026;2023-03-31T08:01:46;93899.16;;;9.13;77.86
39223;BME280;24936;46.328;11.026;2023-03-31T08:04:11;93905.28;;;9.04;77.78
39223;BME280;24936;46.328;11.026;2023-03-31T08:06:38;93908.38;;;8.90;77.79
39223;BME280;24936;46.328;11.026;2023-03-31T08:09:09;93899.53;;;8.91;78.44
39223;BME280;24936;46.328;11.026;2023-03-31T08:11:35;93896.91;;;8.91;78.74
39223;BME280;24936;46.328;11.026;2023-03-31T08:14:03;93890.22;;;9.06;78.01
39223;BME280;24936;46.328;11.026;2023-03-31T08:16:28;93893.16;;;8.93;77.44
39223;BME280;24936;46.328;11.026;2023-03-31T08:18:54;93891.81;;;8.89;78.93
39223;BME280;24936;46.328;11.026;2023-03-31T08:21:20;93884.53;;;8.73;78.64
39223;BME280;24936;46.328;11.026;2023-03-31T08:23:46;93897.13;;;8.60;78.93
39223;BME280;24936;46.328;11.026;2023-03-31T08:26:17;93896.03;;;8.42;79.65
39223;BME280;24936;46.328;11.026;2023-03-31T08:29:10;93891.47;;;8.45;79.80
39223;BME280;24936;46.328;11.026;2023-03-31T08:31:36;93899.06;;;8.38;79.95
39223;BME280;24936;46.328;11.026;2023-03-31T08:34:02;93896.84;;;8.43;79.60
39223;BME280;24936;46.328;11.026;2023-03-31T08:36:28;93894.47;;;8.69;79.39
39223;BME280;24936;46.328;11.026;2023-03-31T08:38:53;93882.31;;;8.78;79.16
39223;BME280;24936;46.328;11.026;2023-03-31T08:44:14;93873.41;;;9.27;77.52
39223;BME280;24936;46.328;11.026;2023-03-31T08:46:44;93880.47;;;9.26;77.07
39223;BME280;24936;46.328;11.026;2023-03-31T08:49:17;93875.78;;;9.20;77.85
39223;BME280;24936;46.328;11.026;2023-03-31T08:51:48;93880.22;;;9.20;77.25
39223;BME280;24936;46.328;11.026;2023-03-31T08:54:37;93872.34;;;9.20;77.54
39223;BME280;24936;46.328;11.026;2023-03-31T08:57:11;93853.88;;;9.39;76.37
39223;BME280;24936;46.328;11.026;2023-03-31T08:59:49;93850.41;;;9.39;76.51
39223;BME280;24936;46.328;11.026;2023-03-31T09:05:27;93837.94;;;9.41;76.02
39223;BME280;24936;46.328;11.026;2023-03-31T09:25:17;93808.03;;;9.52;76.19
39223;BME280;24936;46.328;11.026;2023-03-31T09:27:44;93806.19;;;9.34;76.39
39223;BME280;24936;46.328;11.026;2023-03-31T09:30:19;93812.72;;;9.30;77.43
39223;BME280;24936;46.328;11.026;2023-03-31T09:32:48;93802.66;;;9.25;77.38
39223;BME280;24936;46.328;11.026;2023-03-31T09:35:19;93801.53;;;9.00;77.36
39223;BME280;24936;46.328;11.026;2023-03-31T09:37:46;93811.88;;;9.11;77.70
39223;BME280;24936;46.328;11.026;2023-03-31T09:40:20;93810.31;;;8.91;77.73
39223;BME280;24936;46.328;11.026;2023-03-31T09:42:53;93797.47;;;8.87;77.81
39223;BME280;24936;46.328;11.026;2023-03-31T09:45:21;93778.81;;;8.91;77.91
39223;BME280;24936;46.328;11.026;2023-03-31T09:47:50;93783.56;;;8.77;78.10
39223;BME280;24936;46.328;11.026;2023-03-31T09:57:51;93775.97;;;9.02;77.28
39223;BME280;24936;46.328;11.026;2023-03-31T10:03:05;93766.16;;;9.04;77.06
39223;BME280;24936;46.328;11.026;2023-03-31T10:05:46;93748.03;;;9.11;77.11
39223;BME280;24936;46.328;11.026;2023-03-31T10:13:49;93739.81;;;9.24;76.23
39223;BME280;24936;46.328;11.026;2023-03-31T10:16:22;93742.19;;;9.17;76.32
39223;BME280;24936;46.328;11.026;2023-03-31T10:18:52;93738.59;;;9.18;76.56
39223;BME280;24936;46.328;11.026;2023-03-31T10:21:35;93743.63;;;9.29;76.35
39223;BME280;24936;46.328;11.026;2023-03-31T10:24:07;93737.91;;;9.34;75.86
39223;BME280;24936;46.328;11.026;2023-03-31T10:26:33;93751.28;;;9.59;75.52
39223;BME280;24936;46.328;11.026;2023-03-31T10:28:59;93748.72;;;9.49;75.83
39223;BME280;24936;46.328;11.026;2023-03-31T10:31:26;93745.78;;;9.70;75.24
39223;BME280;24936;46.328;11.026;2023-03-31T10:33:58;93749.00;;;9.82;74.23
39223;BME280;24936;46.328;11.026;2023-03-31T10:36:29;93751.78;;;9.62;74.71
39223;BME280;24936;46.328;11.026;2023-03-31T10:38:56;93735.00;;;9.37;74.74
39223;BME280;24936;46.328;11.026;2023-03-31T10:41:27;93732.38;;;9.37;74.58
39223;BME280;24936;46.328;11.026;2023-03-31T10:43:58;93718.84;;;9.32;74.67
39223;BME280;24936;46.328;11.026;2023-03-31T10:46:50;93714.50;;;9.41;75.22
39223;BME280;24936;46.328;11.026;2023-03-31T10:49:38;93712.69;;;9.05;76.31
39223;BME280;24936;46.328;11.026;2023-03-31T10:52:22;93716.28;;;9.04;76.27
39223;BME280;24936;46.328;11.026;2023-03-31T10:54:52;93714.56;;;8.95;76.10
39223;BME280;24936;46.328;11.026;2023-03-31T11:00:31;93690.56;;;8.90;76.47
39223;BME280;24936;46.328;11.026;2023-03-31T11:05:42;93678.50;;;8.97;77.04
39223;BME280;24936;46.328;11.026;2023-03-31T11:14:32;93642.66;;;8.87;77.22
39223;BME280;24936;46.328;11.026;2023-03-31T11:17:15;93626.66;;;8.99;77.88
39223;BME280;24936;46.328;11.026;2023-03-31T11:19:55;93616.13;;;8.91;77.73
39223;BME280;24936;46.328;11.026;2023-03-31T11:22:33;93614.25;;;8.83;78.30
39223;BME280;24936;46.328;11.026;2023-03-31T11:25:14;93600.13;;;9.02;78.04
39223;BME280;24936;46.328;11.026;2023-03-31T11:31:11;93604.78;;;9.08;77.81
39223;BME280;24936;46.328;11.026;2023-03-31T11:39:58;93582.69;;;8.75;79.18
39223;BME280;24936;46.328;11.026;2023-03-31T11:45:28;93569.34;;;8.68;78.36
39223;BME280;24936;46.328;11.026;2023-03-31T11:56:50;93527.69;;;8.65;77.35
39223;BME280;24936;46.328;11.026;2023-03-31T11:59:19;93523.84;;;8.77;77.45
39223;BME280;24936;46.328;11.026;2023-03-31T12:04:43;93518.56;;;8.95;76.47
39223;BME280;24936;46.328;11.026;2023-03-31T12:10:03;93499.31;;;9.13;75.16
39223;BME280;24936;46.328;11.026;2023-03-31T12:19:09;93494.84;;;9.31;74.67
39223;BME280;24936;46.328;11.026;2023-03-31T12:22:33;93480.78;;;9.14;74.86
39223;BME280;24936;46.328;11.026;2023-03-31T12:25:10;93478.84;;;9.16;75.03
39223;BME280;24936;46.328;11.026;2023-03-31T12:27:56;93472.28;;;9.12;75.56
39223;BME280;24936;46.328;11.026;2023-03-31T12:30:37;93471.63;;;9.18;74.20
39223;BME280;24936;46.328;11.026;2023-03-31T12:33:28;93467.53;;;9.16;74.79
39223;BME280;24936;46.328;11.026;2023-03-31T12:36:26;93466.38;;;9.18;73.78
39223;BME280;24936;46.328;11.026;2023-03-31T12:39:39;93459.56;;;9.34;74.15
39223;BME280;24936;46.328;11.026;2023-03-31T12:45:34;93439.56;;;9.41;73.63
39223;BME280;24936;46.328;11.026;2023-03-31T12:48:28;93447.81;;;9.46;73.12
39223;BME280;24936;46.328;11.026;2023-03-31T12:51:27;93443.81;;;9.34;73.51
39223;BME280;24936;46.328;11.026;2023-03-31T12:54:34;93428.06;;;9.34;73.66
39223;BME280;24936;46.328;11.026;2023-03-31T12:57:44;93425.41;;;9.26;73.65
39223;BME280;24936;46.328;11.026;2023-03-31T13:07:40;93402.78;;;9.33;72.55
39223;BME280;24936;46.328;11.026;2023-03-31T13:10:24;93387.19;;;9.31;72.83
39223;BME280;24936;46.328;11.026;2023-03-31T13:14:30;93402.16;;;9.39;73.34
39223;BME280;24936;46.328;11.026;2023-03-31T13:16:06;93387.03;;;9.41;73.59
39223;BME280;24936;46.328;11.026;2023-03-31T13:18:32;93376.75;;;9.13;73.69
39223;BME280;24936;46.328;11.026;2023-03-31T13:20:59;93390.41;;;9.17;74.17
39223;BME280;24936;46.328;11.026;2023-03-31T13:23:25;93382.84;;;9.14;74.01
39223;BME280;24936;46.328;11.026;2023-03-31T13:25:59;93370.41;;;9.16;73.67
39223;BME280;24936;46.328;11.026;2023-03-31T13:28:48;93375.53;;;9.34;73.17
39223;BME280;24936;46.328;11.026;2023-03-31T13:34:49;93345.31;;;9.22;74.23
39223;BME280;24936;46.328;11.026;2023-03-31T13:59:33;93270.56;;;9.75;70.04
39223;BME280;24936;46.328;11.026;2023-03-31T14:05:27;93262.19;;;9.55;70.72
39223;BME280;24936;46.328;11.026;2023-03-31T14:08:12;93257.72;;;9.56;70.98
39223;BME280;24936;46.328;11.026;2023-03-31T14:10:45;93261.00;;;9.33;71.53
39223;BME280;24936;46.328;11.026;2023-03-31T14:13:18;93255.22;;;9.21;71.41
39223;BME280;24936;46.328;11.026;2023-03-31T14:15:50;93253.44;;;9.30;70.78
39223;BME280;24936;46.328;11.026;2023-03-31T14:18:37;93245.69;;;9.20;71.59
39223;BME280;24936;46.328;11.026;2023-03-31T14:22:29;93258.00;;;9.11;71.83
39223;BME280;24936;46.328;11.026;2023-03-31T14:30:52;93238.25;;;8.99;72.30
39223;BME280;24936;46.328;11.026;2023-03-31T14:41:13;93235.50;;;8.57;75.13
39223;BME280;24936;46.328;11.026;2023-03-31T14:43:48;93235.09;;;8.44;75.17
39223;BME280;24936;46.328;11.026;2023-03-31T14:46:34;93240.72;;;8.49;74.97
39223;BME280;24936;46.328;11.026;2023-03-31T14:51:44;93236.56;;;8.73;74.21
39223;BME280;24936;46.328;11.026;2023-03-31T14:54:17;93227.06;;;8.80;72.91
39223;BME280;24936;46.328;11.026;2023-03-31T14:57:08;93226.91;;;8.82;74.52
39223;BME280;24936;46.328;11.026;2023-03-31T14:59:54;93230.31;;;8.74;73.49
39223;BME280;24936;46.328;11.026;2023-03-31T15:02:40;93228.34;;;8.68;74.24
39223;BME280;24936;46.328;11.026;2023-03-31T15:05:08;93236.88;;;8.70;74.35
39223;BME280;24936;46.328;11.026;2023-03-31T15:07:45;93238.19;;;8.74;73.03
39223;BME280;24936;46.328;11.026;2023-03-31T15:10:47;93238.06;;;8.76;73.04
39223;BME280;24936;46.328;11.026;2023-03-31T15:13:26;93237.88;;;8.77;71.57
39223;BME280;24936;46.328;11.026;2023-03-31T15:15:54;93228.19;;;8.78;71.86
39223;BME280;24936;46.328;11.026;2023-03-31T15:18:19;93234.28;;;8.78;72.00
39223;BME280;24936;46.328;11.026;2023-03-31T15:20:52;93240.81;;;8.74;73.17
39223;BME280;24936;46.328;11.026;2023-03-31T15:23:26;93229.66;;;8.72;72.16
39223;BME280;24936;46.328;11.026;2023-03-31T15:25:57;93229.31;;;8.67;72.24
39223;BME280;24936;46.328;11.026;2023-03-31T15:28:25;93236.34;;;8.66;72.79
39223;BME280;24936;46.328;11.026;2023-03-31T15:30:53;93242.63;;;8.74;72.60
39223;BME280;24936;46.328;11.026;2023-03-31T15:33:47;93240.50;;;8.77;72.68
39223;BME280;24936;46.328;11.026;2023-03-31T15:36:21;93234.41;;;8.68;72.17
39223;BME280;24936;46.328;11.026;2023-03-31T15:39:11;93233.63;;;8.76;71.89
39223;BME280;24936;46.328;11.026;2023-03-31T15:41:47;93248.03;;;8.72;72.73
39223;BME280;24936;46.328;11.026;2023-03-31T15:47:05;93237.16;;;8.59;73.59
39223;BME280;24936;46.328;11.026;2023-03-31T15:49:32;93234.38;;;8.34;76.08
39223;BME280;24936;46.328;11.026;2023-03-31T15:51:57;93230.34;;;8.13;77.85
39223;BME280;24936;46.328;11.026;2023-03-31T15:54:40;93243.44;;;7.87;81.37
39223;BME280;24936;46.328;11.026;2023-03-31T15:57:13;93241.09;;;7.57;83.89
39223;BME280;24936;46.328;11.026;2023-03-31T15:59:51;93240.44;;;7.37;84.06
39223;BME280;24936;46.328;11.026;2023-03-31T16:02:27;93235.34;;;7.17;85.93
39223;BME280;24936;46.328;11.026;2023-03-31T16:05:04;93244.91;;;7.09;87.74
39223;BME280;24936;46.328;11.026;2023-03-31T16:34:05;93221.66;;;7.06;90.52
39223;BME280;24936;46.328;11.026;2023-03-31T16:36:37;93227.44;;;7.09;91.76
39223;BME280;24936;46.328;11.026;2023-03-31T16:46:12;93230.97;;;6.90;92.35
39223;BME280;24936;46.328;11.026;2023-03-31T16:49:09;93218.94;;;6.79;92.64
39223;BME280;24936;46.328;11.026;2023-03-31T16:51:58;93218.09;;;6.79;92.00
39223;BME280;24936;46.328;11.026;2023-03-31T18:44:24;93251.63;;;5.90;97.50
39223;BME280;24936;46.328;11.026;2023-03-31T18:46:59;93245.28;;;5.92;96.69
39223;BME280;24936;46.328;11.026;2023-03-31T18:49:28;93243.38;;;5.85;96.74
39223;BME280;24936;46.328;11.026;2023-03-31T19:05:48;93256.31;;;5.76;96.61
39223;BME280;24936;46.328;11.026;2023-03-31T21:24:10;93253.75;;;4.16;98.72
39223;BME280;24936;46.328;11.026;2023-03-31T21:37:46;93259.44;;;4.00;98.13
39223;BME280;24936;46.328;11.026;2023-03-31T21:44:00;93247.06;;;3.92;97.42
39223;BME280;24936;46.328;11.026;2023-03-31T21:46:44;93245.16;;;3.94;97.35
39223;BME280;24936;46.328;11.026;2023-03-31T23:37:37;93254.16;;;2.62;98.98
39223;BME280;24936;46.328;11.026;2023-03-31T23:40:07;93252.19;;;2.42;98.92
39223;BME280;24936;46.328;11.026;2023-03-31T23:42:39;93243.13;;;2.37;99.08
39223;BME280;24936;46.328;11.026;2023-03-31T23:45:05;93248.88;;;2.40;98.89
39223;BME280;24936;46.328;11.026;2023-03-31T23:47:33;93250.06;;;2.36;98.79